sensor_id;sensor_type;location;lat;lon;timestamp;P1;durP1;ratioP1;P2;durP2;ratioP2
49237;SDS011;35069;47.906;1.892;2024-02-15T00:19:55;5.15;;;2.40;;
49237;SDS011;35069;47.906;1.892;2024-02-15T00:22:21;8.18;;;2.70;;
49237;SDS011;35069;47.906;1.892;2024-02-15T00:24:46;4.60;;;2.03;;
49237;SDS011;35069;47.906;1.892;2024-02-15T00:27:14;4.80;;;2.30;;
49237;SDS011;35069;47.906;1.892;2024-02-15T00:29:40;7.10;;;2.38;;
49237;SDS011;35069;47.906;1.892;2024-02-15T00:32:06;4.63;;;2.03;;
49237;SDS011;35069;47.906;1.892;2024-02-15T00:34:32;8.43;;;2.22;;
49237;SDS011;35069;47.906;1.892;2024-02-15T00:36:58;5.00;;;2.20;;
49237;SDS011;35069;47.906;1.892;2024-02-15T00:39:24;7.03;;;2.17;;
49237;SDS011;35069;47.906;1.892;2024-02-15T00:41:49;4.65;;;2.28;;
49237;SDS011;35069;47.906;1.892;2024-02-15T00:44:15;3.78;;;1.83;;
49237;SDS011;35069;47.906;1.892;2024-02-15T00:46:42;4.32;;;1.75;;
49237;SDS011;35069;47.906;1.892;2024-02-15T00:49:08;3.92;;;1.70;;
49237;SDS011;35069;47.906;1.892;2024-02-15T00:51:35;4.50;;;1.88;;
49237;SDS011;35069;47.906;1.892;2024-02-15T00:54:01;2.25;;;1.70;;
49237;SDS011;35069;47.906;1.892;2024-02-15T00:56:27;8.10;;;2.50;;
49237;SDS011;35069;47.906;1.892;2024-02-15T00:58:56;5.05;;;2.42;;
49237;SDS011;35069;47.906;1.892;2024-02-15T01:01:21;7.95;;;2.00;;
49237;SDS011;35069;47.906;1.892;2024-02-15T01:03:47;5.57;;;2.30;;
49237;SDS011;35069;47.906;1.892;2024-02-15T01:06:13;4.38;;;1.75;;
49237;SDS011;35069;47.906;1.892;2024-02-15T01:08:38;4.68;;;1.52;;
49237;SDS011;35069;47.906;1.892;2024-02-15T01:11:04;8.85;;;2.30;;
49237;SDS011;35069;47.906;1.892;2024-02-15T01:13:31;5.40;;;1.80;;
49237;SDS011;35069;47.906;1.892;2024-02-15T01:15:56;2.10;;;1.30;;
49237;SDS011;35069;47.906;1.892;2024-02-15T01:18:22;5.70;;;1.75;;
49237;SDS011;35069;47.906;1.892;2024-02-15T01:20:47;3.17;;;1.60;;
49237;SDS011;35069;47.906;1.892;2024-02-15T01:23:13;3.10;;;1.52;;
49237;SDS011;35069;47.906;1.892;2024-02-15T01:25:39;2.97;;;1.50;;
49237;SDS011;35069;47.906;1.892;2024-02-15T02:35:22;2.30;;;1.80;;
49237;SDS011;35069;47.906;1.892;2024-02-15T02:37:47;5.50;;;1.70;;
49237;SDS011;35069;47.906;1.892;2024-02-15T02:40:13;3.47;;;1.55;;
49237;SDS011;35069;47.906;1.892;2024-02-15T02:42:48;1.50;;;1.33;;
49237;SDS011;35069;47.906;1.892;2024-02-15T02:45:16;2.60;;;1.60;;
49237;SDS011;35069;47.906;1.892;2024-02-15T02:47:42;3.58;;;1.90;;
49237;SDS011;35069;47.906;1.892;2024-02-15T02:50:07;3.28;;;1.65;;
49237;SDS011;35069;47.906;1.892;2024-02-15T02:52:33;4.13;;;1.48;;
49237;SDS011;35069;47.906;1.892;2024-02-15T02:54:58;5.00;;;1.70;;
49237;SDS011;35069;47.906;1.892;2024-02-15T02:57:24;1.73;;;1.38;;
49237;SDS011;35069;47.906;1.892;2024-02-15T02:59:50;6.22;;;2.17;;
49237;SDS011;35069;47.906;1.892;2024-02-15T03:02:16;4.43;;;1.52;;
49237;SDS011;35069;47.906;1.892;2024-02-15T03:04:42;2.08;;;1.55;;
49237;SDS011;35069;47.906;1.892;2024-02-15T03:07:08;2.60;;;1.35;;
49237;SDS011;35069;47.906;1.892;2024-02-15T03:09:34;6.55;;;2.38;;
49237;SDS011;35069;47.906;1.892;2024-02-15T03:12:02;3.97;;;1.85;;
49237;SDS011;35069;47.906;1.892;2024-02-15T03:14:28;2.53;;;1.42;;
49237;SDS011;35069;47.906;1.892;2024-02-15T03:16:56;3.83;;;1.02;;
49237;SDS011;35069;47.906;1.892;2024-02-15T03:19:21;3.88;;;1.63;;
49237;SDS011;35069;47.906;1.892;2024-02-15T03:21:48;1.77;;;1.30;;
49237;SDS011;35069;47.906;1.892;2024-02-15T03:24:13;1.48;;;1.35;;
49237;SDS011;35069;47.906;1.892;2024-02-15T03:26:39;2.35;;;1.52;;
49237;SDS011;35069;47.906;1.892;2024-02-15T03:29:05;7.03;;;1.67;;
49237;SDS011;35069;47.906;1.892;2024-02-15T03:31:32;5.10;;;1.30;;
49237;SDS011;35069;47.906;1.892;2024-02-15T03:34:01;5.72;;;1.60;;
49237;SDS011;35069;47.906;1.892;2024-02-15T03:36:27;8.77;;;1.40;;
49237;SDS011;35069;47.906;1.892;2024-02-15T04:41:39;2.50;;;1.73;;
49237;SDS011;35069;47.906;1.892;2024-02-15T04:44:04;3.38;;;2.08;;
49237;SDS011;35069;47.906;1.892;2024-02-15T04:46:33;6.97;;;2.30;;
49237;SDS011;35069;47.906;1.892;2024-02-15T04:48:59;5.57;;;2.15;;
49237;SDS011;35069;47.906;1.892;2024-02-15T04:51:26;7.38;;;2.65;;
49237;SDS011;35069;47.906;1.892;2024-02-15T04:53:52;3.65;;;2.13;;
49237;SDS011;35069;47.906;1.892;2024-02-15T04:56:18;3.05;;;2.00;;
49237;SDS011;35069;47.906;1.892;2024-02-15T04:58:46;5.18;;;2.05;;
49237;SDS011;35069;47.906;1.892;2024-02-15T05:01:15;2.92;;;2.00;;
49237;SDS011;35069;47.906;1.892;2024-02-15T05:03:44;4.95;;;2.10;;
49237;SDS011;35069;47.906;1.892;2024-02-15T05:06:10;4.53;;;1.80;;
49237;SDS011;35069;47.906;1.892;2024-02-15T05:08:38;2.83;;;1.90;;
49237;SDS011;35069;47.906;1.892;2024-02-15T05:11:08;6.70;;;1.77;;
49237;SDS011;35069;47.906;1.892;2024-02-15T05:13:45;2.10;;;1.90;;
49237;SDS011;35069;47.906;1.892;2024-02-15T05:16:11;3.08;;;1.70;;
49237;SDS011;35069;47.906;1.892;2024-02-15T05:18:37;4.85;;;2.05;;
49237;SDS011;35069;47.906;1.892;2024-02-15T05:21:05;5.18;;;2.05;;
49237;SDS011;35069;47.906;1.892;2024-02-15T05:23:34;3.22;;;1.80;;
49237;SDS011;35069;47.906;1.892;2024-02-15T05:26:05;2.97;;;1.65;;
49237;SDS011;35069;47.906;1.892;2024-02-15T05:28:31;5.72;;;2.35;;
49237;SDS011;35069;47.906;1.892;2024-02-15T05:31:09;3.25;;;2.00;;
49237;SDS011;35069;47.906;1.892;2024-02-15T05:33:45;3.92;;;1.98;;
49237;SDS011;35069;47.906;1.892;2024-02-15T05:36:14;2.92;;;2.40;;
49237;SDS011;35069;47.906;1.892;2024-02-15T05:38:40;3.70;;;2.10;;
49237;SDS011;35069;47.906;1.892;2024-02-15T05:41:06;2.72;;;1.77;;
49237;SDS011;35069;47.906;1.892;2024-02-15T05:47:03;4.60;;;1.83;;
49237;SDS011;35069;47.906;1.892;2024-02-15T05:49:44;3.75;;;2.10;;
49237;SDS011;35069;47.906;1.892;2024-02-15T05:52:36;4.90;;;1.90;;
49237;SDS011;35069;47.906;1.892;2024-02-15T05:55:07;5.30;;;2.00;;
49237;SDS011;35069;47.906;1.892;2024-02-15T05:57:40;3.60;;;2.10;;
49237;SDS011;35069;47.906;1.892;2024-02-15T06:00:18;3.30;;;1.95;;
49237;SDS011;35069;47.906;1.892;2024-02-15T06:02:57;3.60;;;1.80;;
49237;SDS011;35069;47.906;1.892;2024-02-15T06:05:30;5.40;;;2.70;;
49237;SDS011;35069;47.906;1.892;2024-02-15T06:08:00;3.42;;;1.98;;
49237;SDS011;35069;47.906;1.892;2024-02-15T06:10:26;6.43;;;2.45;;
49237;SDS011;35069;47.906;1.892;2024-02-15T06:13:18;5.53;;;2.25;;
49237;SDS011;35069;47.906;1.892;2024-02-15T06:15:47;2.60;;;2.40;;
49237;SDS011;35069;47.906;1.892;2024-02-15T06:21:22;3.40;;;2.30;;
49237;SDS011;35069;47.906;1.892;2024-02-15T06:24:01;3.67;;;2.30;;
49237;SDS011;35069;47.906;1.892;2024-02-15T06:30:10;3.72;;;2.25;;
49237;SDS011;35069;47.906;1.892;2024-02-15T06:36:24;6.05;;;2.55;;
49237;SDS011;35069;47.906;1.892;2024-02-15T06:39:08;2.58;;;2.30;;
49237;SDS011;35069;47.906;1.892;2024-02-15T06:41:58;3.30;;;2.92;;
49237;SDS011;35069;47.906;1.892;2024-02-15T06:44:42;5.38;;;2.33;;
49237;SDS011;35069;47.906;1.892;2024-02-15T06:47:08;3.55;;;2.63;;
49237;SDS011;35069;47.906;1.892;2024-02-15T06:49:40;7.38;;;2.88;;
49237;SDS011;35069;47.906;1.892;2024-02-15T06:55:12;5.57;;;3.10;;
49237;SDS011;35069;47.906;1.892;2024-02-15T06:57:56;7.43;;;2.83;;
49237;SDS011;35069;47.906;1.892;2024-02-15T07:00:24;3.45;;;2.72;;
49237;SDS011;35069;47.906;1.892;2024-02-15T07:02:52;5.00;;;2.47;;
49237;SDS011;35069;47.906;1.892;2024-02-15T07:05:18;4.22;;;2.35;;
49237;SDS011;35069;47.906;1.892;2024-02-15T07:07:43;5.40;;;3.08;;
49237;SDS011;35069;47.906;1.892;2024-02-15T07:10:09;5.00;;;2.80;;
49237;SDS011;35069;47.906;1.892;2024-02-15T07:12:35;4.22;;;2.90;;
49237;SDS011;35069;47.906;1.892;2024-02-15T07:15:03;4.82;;;2.17;;
49237;SDS011;35069;47.906;1.892;2024-02-15T07:17:31;5.22;;;2.75;;
49237;SDS011;35069;47.906;1.892;2024-02-15T07:19:57;6.80;;;4.13;;
49237;SDS011;35069;47.906;1.892;2024-02-15T07:22:22;4.72;;;2.78;;
49237;SDS011;35069;47.906;1.892;2024-02-15T07:24:48;5.53;;;2.72;;
49237;SDS011;35069;47.906;1.892;2024-02-15T07:27:14;3.53;;;2.28;;
49237;SDS011;35069;47.906;1.892;2024-02-15T07:29:39;4.50;;;3.05;;
49237;SDS011;35069;47.906;1.892;2024-02-15T07:32:05;8.65;;;2.63;;
49237;SDS011;35069;47.906;1.892;2024-02-15T07:34:32;2.80;;;2.28;;
49237;SDS011;35069;47.906;1.892;2024-02-15T07:36:58;5.45;;;2.63;;
49237;SDS011;35069;47.906;1.892;2024-02-15T07:39:24;2.75;;;2.55;;
49237;SDS011;35069;47.906;1.892;2024-02-15T07:41:52;5.68;;;2.60;;
49237;SDS011;35069;47.906;1.892;2024-02-15T07:44:19;5.60;;;2.58;;
49237;SDS011;35069;47.906;1.892;2024-02-15T07:46:46;7.30;;;2.75;;
49237;SDS011;35069;47.906;1.892;2024-02-15T07:49:12;6.25;;;3.40;;
49237;SDS011;35069;47.906;1.892;2024-02-15T07:51:38;3.40;;;2.83;;
49237;SDS011;35069;47.906;1.892;2024-02-15T07:54:03;4.05;;;2.63;;
49237;SDS011;35069;47.906;1.892;2024-02-15T07:56:29;4.30;;;3.28;;
49237;SDS011;35069;47.906;1.892;2024-02-15T07:58:55;3.47;;;3.17;;
49237;SDS011;35069;47.906;1.892;2024-02-15T08:01:21;5.35;;;2.65;;
49237;SDS011;35069;47.906;1.892;2024-02-15T08:03:47;5.63;;;2.88;;
49237;SDS011;35069;47.906;1.892;2024-02-15T08:06:14;4.43;;;2.38;;
49237;SDS011;35069;47.906;1.892;2024-02-15T08:08:44;7.15;;;2.92;;
49237;SDS011;35069;47.906;1.892;2024-02-15T08:11:12;6.18;;;2.42;;
49237;SDS011;35069;47.906;1.892;2024-02-15T08:13:44;3.83;;;2.53;;
49237;SDS011;35069;47.906;1.892;2024-02-15T08:16:13;4.90;;;2.80;;
49237;SDS011;35069;47.906;1.892;2024-02-15T08:18:41;6.10;;;2.80;;
49237;SDS011;35069;47.906;1.892;2024-02-15T08:21:08;9.02;;;3.35;;
49237;SDS011;35069;47.906;1.892;2024-02-15T08:23:34;4.85;;;3.13;;
49237;SDS011;35069;47.906;1.892;2024-02-15T08:25:59;6.22;;;2.90;;
49237;SDS011;35069;47.906;1.892;2024-02-15T08:28:25;3.38;;;2.65;;
49237;SDS011;35069;47.906;1.892;2024-02-15T08:30:53;5.55;;;3.15;;
49237;SDS011;35069;47.906;1.892;2024-02-15T08:33:21;6.70;;;3.20;;
49237;SDS011;35069;47.906;1.892;2024-02-15T08:35:46;7.75;;;2.90;;
49237;SDS011;35069;47.906;1.892;2024-02-15T08:38:12;8.07;;;3.00;;
49237;SDS011;35069;47.906;1.892;2024-02-15T08:40:38;6.90;;;2.92;;
49237;SDS011;35069;47.906;1.892;2024-02-15T08:43:04;4.78;;;2.67;;
49237;SDS011;35069;47.906;1.892;2024-02-15T08:45:29;8.20;;;3.67;;
49237;SDS011;35069;47.906;1.892;2024-02-15T08:47:55;6.22;;;2.80;;
49237;SDS011;35069;47.906;1.892;2024-02-15T08:50:20;10.68;;;3.25;;
49237;SDS011;35069;47.906;1.892;2024-02-15T08:53:02;5.78;;;3.03;;
49237;SDS011;35069;47.906;1.892;2024-02-15T08:56:02;4.13;;;3.03;;
49237;SDS011;35069;47.906;1.892;2024-02-15T08:58:55;10.95;;;3.53;;
49237;SDS011;35069;47.906;1.892;2024-02-15T09:01:38;9.27;;;3.83;;
49237;SDS011;35069;47.906;1.892;2024-02-15T09:06:49;4.50;;;3.08;;
49237;SDS011;35069;47.906;1.892;2024-02-15T09:09:18;8.73;;;3.42;;
49237;SDS011;35069;47.906;1.892;2024-02-15T09:11:46;4.15;;;2.72;;
49237;SDS011;35069;47.906;1.892;2024-02-15T09:16:54;5.25;;;2.80;;
49237;SDS011;35069;47.906;1.892;2024-02-15T09:19:25;4.32;;;3.22;;
49237;SDS011;35069;47.906;1.892;2024-02-15T09:21:54;6.63;;;2.90;;
49237;SDS011;35069;47.906;1.892;2024-02-15T09:24:26;8.55;;;2.97;;
49237;SDS011;35069;47.906;1.892;2024-02-15T09:27:02;6.40;;;2.70;;
49237;SDS011;35069;47.906;1.892;2024-02-15T09:29:33;4.03;;;3.00;;
49237;SDS011;35069;47.906;1.892;2024-02-15T09:32:20;4.60;;;2.75;;
49237;SDS011;35069;47.906;1.892;2024-02-15T09:35:08;4.85;;;2.85;;
49237;SDS011;35069;47.906;1.892;2024-02-15T09:37:44;4.32;;;2.83;;
49237;SDS011;35069;47.906;1.892;2024-02-15T09:40:17;3.30;;;2.40;;
49237;SDS011;35069;47.906;1.892;2024-02-15T09:42:54;4.78;;;2.72;;
49237;SDS011;35069;47.906;1.892;2024-02-15T09:45:25;6.57;;;2.90;;
49237;SDS011;35069;47.906;1.892;2024-02-15T09:47:51;6.57;;;3.35;;
49237;SDS011;35069;47.906;1.892;2024-02-15T09:50:21;4.18;;;2.35;;
49237;SDS011;35069;47.906;1.892;2024-02-15T09:52:52;4.38;;;2.78;;
49237;SDS011;35069;47.906;1.892;2024-02-15T09:55:24;9.50;;;5.00;;
49237;SDS011;35069;47.906;1.892;2024-02-15T09:57:50;4.18;;;2.63;;
49237;SDS011;35069;47.906;1.892;2024-02-15T10:00:16;7.05;;;2.83;;
49237;SDS011;35069;47.906;1.892;2024-02-15T10:02:43;5.78;;;3.65;;
49237;SDS011;35069;47.906;1.892;2024-02-15T10:05:10;5.57;;;2.55;;
49237;SDS011;35069;47.906;1.892;2024-02-15T10:07:37;4.47;;;3.28;;
49237;SDS011;35069;47.906;1.892;2024-02-15T10:12:54;6.75;;;3.13;;
49237;SDS011;35069;47.906;1.892;2024-02-15T10:15:41;8.13;;;2.78;;
49237;SDS011;35069;47.906;1.892;2024-02-15T10:18:07;4.38;;;2.50;;
49237;SDS011;35069;47.906;1.892;2024-02-15T10:20:35;5.70;;;2.45;;
49237;SDS011;35069;47.906;1.892;2024-02-15T10:25:43;5.47;;;3.40;;
49237;SDS011;35069;47.906;1.892;2024-02-15T10:28:12;5.00;;;2.40;;
49237;SDS011;35069;47.906;1.892;2024-02-15T10:30:41;6.20;;;2.90;;
49237;SDS011;35069;47.906;1.892;2024-02-15T10:33:25;5.35;;;2.33;;
49237;SDS011;35069;47.906;1.892;2024-02-15T10:36:05;4.43;;;2.58;;
49237;SDS011;35069;47.906;1.892;2024-02-15T10:38:34;3.08;;;2.00;;
49237;SDS011;35069;47.906;1.892;2024-02-15T10:41:04;3.53;;;2.78;;
49237;SDS011;35069;47.906;1.892;2024-02-15T10:43:31;5.70;;;2.38;;
49237;SDS011;35069;47.906;1.892;2024-02-15T10:45:58;5.10;;;3.10;;
49237;SDS011;35069;47.906;1.892;2024-02-15T10:48:25;12.48;;;2.92;;
49237;SDS011;35069;47.906;1.892;2024-02-15T10:50:53;5.72;;;2.88;;
49237;SDS011;35069;47.906;1.892;2024-02-15T10:58:49;3.33;;;1.88;;
49237;SDS011;35069;47.906;1.892;2024-02-15T11:01:17;6.20;;;2.05;;
49237;SDS011;35069;47.906;1.892;2024-02-15T11:03:56;1.83;;;1.73;;
49237;SDS011;35069;47.906;1.892;2024-02-15T11:06:27;3.33;;;1.75;;
49237;SDS011;35069;47.906;1.892;2024-02-15T11:08:55;2.45;;;1.52;;
49237;SDS011;35069;47.906;1.892;2024-02-15T11:29:54;1.85;;;1.60;;
49237;SDS011;35069;47.906;1.892;2024-02-15T11:36:39;3.08;;;1.58;;
49237;SDS011;35069;47.906;1.892;2024-02-15T11:39:39;4.75;;;2.58;;
49237;SDS011;35069;47.906;1.892;2024-02-15T11:46:00;5.30;;;2.40;;
49237;SDS011;35069;47.906;1.892;2024-02-15T11:48:36;2.80;;;2.08;;
49237;SDS011;35069;47.906;1.892;2024-02-15T11:51:07;2.10;;;1.63;;
49237;SDS011;35069;47.906;1.892;2024-02-15T11:57:14;4.68;;;1.90;;
49237;SDS011;35069;47.906;1.892;2024-02-15T12:03:45;4.03;;;2.15;;
49237;SDS011;35069;47.906;1.892;2024-02-15T12:09:50;3.28;;;2.97;;
49237;SDS011;35069;47.906;1.892;2024-02-15T12:16:18;2.35;;;2.15;;
49237;SDS011;35069;47.906;1.892;2024-02-15T12:19:23;4.45;;;2.20;;
49237;SDS011;35069;47.906;1.892;2024-02-15T12:22:13;6.65;;;1.63;;
49237;SDS011;35069;47.906;1.892;2024-02-15T12:25:00;3.53;;;1.50;;
49237;SDS011;35069;47.906;1.892;2024-02-15T12:27:55;1.73;;;1.58;;
49237;SDS011;35069;47.906;1.892;2024-02-15T12:30:42;4.80;;;1.75;;
49237;SDS011;35069;47.906;1.892;2024-02-15T12:36:48;2.35;;;1.70;;
49237;SDS011;35069;47.906;1.892;2024-02-15T12:39:20;2.78;;;1.42;;
49237;SDS011;35069;47.906;1.892;2024-02-15T12:44:43;2.25;;;1.45;;
49237;SDS011;35069;47.906;1.892;2024-02-15T12:47:19;2.13;;;1.45;;
49237;SDS011;35069;47.906;1.892;2024-02-15T12:49:45;3.13;;;1.65;;
49237;SDS011;35069;47.906;1.892;2024-02-15T12:57:43;2.72;;;1.20;;
49237;SDS011;35069;47.906;1.892;2024-02-15T13:00:15;3.33;;;1.30;;
49237;SDS011;35069;47.906;1.892;2024-02-15T13:02:43;4.55;;;1.80;;
49237;SDS011;35069;47.906;1.892;2024-02-15T13:05:10;1.88;;;1.38;;
49237;SDS011;35069;47.906;1.892;2024-02-15T13:07:36;2.30;;;1.42;;
49237;SDS011;35069;47.906;1.892;2024-02-15T13:10:05;1.27;;;1.08;;
49237;SDS011;35069;47.906;1.892;2024-02-15T13:12:32;2.28;;;1.45;;
49237;SDS011;35069;47.906;1.892;2024-02-15T13:15:00;1.50;;;1.10;;
49237;SDS011;35069;47.906;1.892;2024-02-15T13:17:30;2.42;;;0.88;;
49237;SDS011;35069;47.906;1.892;2024-02-15T13:19:55;4.63;;;1.50;;
49237;SDS011;35069;47.906;1.892;2024-02-15T13:22:28;2.33;;;1.33;;
49237;SDS011;35069;47.906;1.892;2024-02-15T13:24:54;1.80;;;1.23;;
49237;SDS011;35069;47.906;1.892;2024-02-15T13:27:22;2.03;;;1.02;;
49237;SDS011;35069;47.906;1.892;2024-02-15T13:29:49;4.25;;;1.10;;
49237;SDS011;35069;47.906;1.892;2024-02-15T13:32:15;0.90;;;0.88;;
49237;SDS011;35069;47.906;1.892;2024-02-15T13:34:42;1.20;;;0.90;;
49237;SDS011;35069;47.906;1.892;2024-02-15T13:37:10;3.70;;;1.10;;
49237;SDS011;35069;47.906;1.892;2024-02-15T13:39:38;1.60;;;1.17;;
49237;SDS011;35069;47.906;1.892;2024-02-15T13:42:08;2.45;;;1.00;;
49237;SDS011;35069;47.906;1.892;2024-02-15T13:44:33;2.63;;;1.30;;
49237;SDS011;35069;47.906;1.892;2024-02-15T13:46:59;1.17;;;0.98;;
49237;SDS011;35069;47.906;1.892;2024-02-15T13:49:25;3.30;;;0.80;;
49237;SDS011;35069;47.906;1.892;2024-02-15T13:51:51;3.05;;;1.50;;
49237;SDS011;35069;47.906;1.892;2024-02-15T13:54:17;1.92;;;1.10;;
49237;SDS011;35069;47.906;1.892;2024-02-15T13:56:43;2.38;;;1.95;;
49237;SDS011;35069;47.906;1.892;2024-02-15T13:59:09;5.05;;;1.30;;
49237;SDS011;35069;47.906;1.892;2024-02-15T14:01:34;1.42;;;0.95;;
49237;SDS011;35069;47.906;1.892;2024-02-15T14:04:08;3.25;;;1.48;;
49237;SDS011;35069;47.906;1.892;2024-02-15T14:06:34;3.20;;;0.98;;
49237;SDS011;35069;47.906;1.892;2024-02-15T14:11:52;4.25;;;1.33;;
49237;SDS011;35069;47.906;1.892;2024-02-15T14:14:18;7.97;;;1.55;;
49237;SDS011;35069;47.906;1.892;2024-02-15T14:17:09;6.07;;;1.90;;
49237;SDS011;35069;47.906;1.892;2024-02-15T14:19:40;3.95;;;1.48;;
49237;SDS011;35069;47.906;1.892;2024-02-15T14:22:15;2.67;;;1.05;;
49237;SDS011;35069;47.906;1.892;2024-02-15T14:24:51;3.58;;;1.85;;
49237;SDS011;35069;47.906;1.892;2024-02-15T14:27:24;3.40;;;1.30;;
49237;SDS011;35069;47.906;1.892;2024-02-15T14:29:53;3.22;;;1.50;;
49237;SDS011;35069;47.906;1.892;2024-02-15T14:32:39;1.75;;;1.65;;
49237;SDS011;35069;47.906;1.892;2024-02-15T14:35:28;3.03;;;1.35;;
49237;SDS011;35069;47.906;1.892;2024-02-15T14:38:11;3.30;;;1.45;;
49237;SDS011;35069;47.906;1.892;2024-02-15T14:40:44;2.45;;;1.50;;
49237;SDS011;35069;47.906;1.892;2024-02-15T14:43:25;3.63;;;1.20;;
49237;SDS011;35069;47.906;1.892;2024-02-15T14:45:51;1.75;;;1.58;;
49237;SDS011;35069;47.906;1.892;2024-02-15T14:48:21;1.30;;;1.20;;
49237;SDS011;35069;47.906;1.892;2024-02-15T14:50:49;2.28;;;1.10;;
49237;SDS011;35069;47.906;1.892;2024-02-15T14:53:15;1.23;;;1.08;;
49237;SDS011;35069;47.906;1.892;2024-02-15T14:55:50;0.73;;;0.73;;
49237;SDS011;35069;47.906;1.892;2024-02-15T14:58:24;1.55;;;1.00;;
49237;SDS011;35069;47.906;1.892;2024-02-15T15:00:52;1.10;;;1.00;;
49237;SDS011;35069;47.906;1.892;2024-02-15T15:03:29;1.08;;;1.05;;
49237;SDS011;35069;47.906;1.892;2024-02-15T15:06:01;1.00;;;0.82;;
49237;SDS011;35069;47.906;1.892;2024-02-15T15:08:50;2.10;;;0.90;;
49237;SDS011;35069;47.906;1.892;2024-02-15T15:11:34;1.98;;;1.35;;
49237;SDS011;35069;47.906;1.892;2024-02-15T15:14:18;1.60;;;1.10;;
49237;SDS011;35069;47.906;1.892;2024-02-15T15:16:50;4.38;;;1.10;;
49237;SDS011;35069;47.906;1.892;2024-02-15T15:19:15;2.85;;;1.02;;
49237;SDS011;35069;47.906;1.892;2024-02-15T15:21:41;2.42;;;1.17;;
49237;SDS011;35069;47.906;1.892;2024-02-15T15:24:08;4.20;;;1.10;;
49237;SDS011;35069;47.906;1.892;2024-02-15T15:26:34;2.10;;;1.35;;
49237;SDS011;35069;47.906;1.892;2024-02-15T15:29:01;14.73;;;2.05;;
49237;SDS011;35069;47.906;1.892;2024-02-15T15:31:27;2.47;;;1.75;;
49237;SDS011;35069;47.906;1.892;2024-02-15T15:33:52;4.30;;;1.25;;
49237;SDS011;35069;47.906;1.892;2024-02-15T15:36:20;2.92;;;1.10;;
49237;SDS011;35069;47.906;1.892;2024-02-15T15:38:46;1.27;;;1.17;;
49237;SDS011;35069;47.906;1.892;2024-02-15T15:41:12;5.90;;;1.55;;
49237;SDS011;35069;47.906;1.892;2024-02-15T15:43:38;1.75;;;1.23;;
49237;SDS011;35069;47.906;1.892;2024-02-15T15:46:04;4.80;;;1.70;;
49237;SDS011;35069;47.906;1.892;2024-02-15T15:48:30;7.90;;;1.83;;
49237;SDS011;35069;47.906;1.892;2024-02-15T15:50:57;6.28;;;1.40;;
49237;SDS011;35069;47.906;1.892;2024-02-15T15:53:24;5.28;;;2.17;;
49237;SDS011;35069;47.906;1.892;2024-02-15T15:55:49;3.45;;;1.63;;
49237;SDS011;35069;47.906;1.892;2024-02-15T15:58:15;1.67;;;1.45;;
49237;SDS011;35069;47.906;1.892;2024-02-15T16:00:41;1.95;;;1.60;;
49237;SDS011;35069;47.906;1.892;2024-02-15T16:03:06;2.97;;;1.35;;
49237;SDS011;35069;47.906;1.892;2024-02-15T16:05:33;4.65;;;1.30;;
49237;SDS011;35069;47.906;1.892;2024-02-15T16:07:59;1.65;;;1.10;;
49237;SDS011;35069;47.906;1.892;2024-02-15T16:10:25;1.63;;;1.42;;
49237;SDS011;35069;47.906;1.892;2024-02-15T16:12:52;1.50;;;1.40;;
49237;SDS011;35069;47.906;1.892;2024-02-15T16:15:17;1.80;;;1.38;;
49237;SDS011;35069;47.906;1.892;2024-02-15T16:17:44;1.67;;;1.35;;
49237;SDS011;35069;47.906;1.892;2024-02-15T16:20:10;3.03;;;1.30;;
49237;SDS011;35069;47.906;1.892;2024-02-15T16:22:38;2.75;;;1.55;;
49237;SDS011;35069;47.906;1.892;2024-02-15T16:25:05;2.08;;;1.77;;
49237;SDS011;35069;47.906;1.892;2024-02-15T16:30:02;3.83;;;1.45;;
49237;SDS011;35069;47.906;1.892;2024-02-15T16:32:29;4.32;;;1.70;;
49237;SDS011;35069;47.906;1.892;2024-02-15T16:38:22;1.65;;;1.55;;
49237;SDS011;35069;47.906;1.892;2024-02-15T16:41:36;2.65;;;1.70;;
49237;SDS011;35069;47.906;1.892;2024-02-15T16:47:28;2.25;;;1.50;;
49237;SDS011;35069;47.906;1.892;2024-02-15T16:50:40;1.88;;;1.38;;
49237;SDS011;35069;47.906;1.892;2024-02-15T17:03:32;4.90;;;2.28;;
49237;SDS011;35069;47.906;1.892;2024-02-15T17:13:27;13.23;;;3.00;;
49237;SDS011;35069;47.906;1.892;2024-02-15T17:16:16;7.05;;;3.25;;
49237;SDS011;35069;47.906;1.892;2024-02-15T17:19:08;6.72;;;2.78;;
49237;SDS011;35069;47.906;1.892;2024-02-15T17:22:16;11.25;;;3.15;;
49237;SDS011;35069;47.906;1.892;2024-02-15T17:25:00;4.43;;;2.45;;
49237;SDS011;35069;47.906;1.892;2024-02-15T17:30:52;4.43;;;2.22;;
49237;SDS011;35069;47.906;1.892;2024-02-15T17:33:33;2.55;;;2.03;;
49237;SDS011;35069;47.906;1.892;2024-02-15T17:36:47;10.05;;;3.45;;
49237;SDS011;35069;47.906;1.892;2024-02-15T17:39:34;6.47;;;3.77;;
49237;SDS011;35069;47.906;1.892;2024-02-15T17:42:16;10.15;;;3.58;;
49237;SDS011;35069;47.906;1.892;2024-02-15T17:45:12;7.28;;;3.42;;
49237;SDS011;35069;47.906;1.892;2024-02-15T17:48:03;8.02;;;3.80;;
49237;SDS011;35069;47.906;1.892;2024-02-15T17:50:52;7.85;;;3.65;;
49237;SDS011;35069;47.906;1.892;2024-02-15T17:53:21;6.25;;;3.97;;
49237;SDS011;35069;47.906;1.892;2024-02-15T17:55:48;7.40;;;3.22;;
49237;SDS011;35069;47.906;1.892;2024-02-15T17:58:16;7.40;;;3.40;;
49237;SDS011;35069;47.906;1.892;2024-02-15T18:00:42;6.60;;;3.05;;
49237;SDS011;35069;47.906;1.892;2024-02-15T18:03:08;6.03;;;3.53;;
49237;SDS011;35069;47.906;1.892;2024-02-15T18:05:35;5.28;;;3.28;;
49237;SDS011;35069;47.906;1.892;2024-02-15T18:08:01;3.88;;;2.63;;
49237;SDS011;35069;47.906;1.892;2024-02-15T18:10:27;7.40;;;3.33;;
49237;SDS011;35069;47.906;1.892;2024-02-15T18:12:52;3.42;;;2.67;;
49237;SDS011;35069;47.906;1.892;2024-02-15T18:15:19;7.93;;;3.20;;
49237;SDS011;35069;47.906;1.892;2024-02-15T18:17:54;4.70;;;2.70;;
49237;SDS011;35069;47.906;1.892;2024-02-15T18:20:22;3.45;;;2.50;;
49237;SDS011;35069;47.906;1.892;2024-02-15T18:22:48;5.18;;;2.95;;
49237;SDS011;35069;47.906;1.892;2024-02-15T18:25:14;6.60;;;2.80;;
49237;SDS011;35069;47.906;1.892;2024-02-15T18:27:40;2.85;;;2.50;;
49237;SDS011;35069;47.906;1.892;2024-02-15T18:30:07;3.15;;;2.53;;
49237;SDS011;35069;47.906;1.892;2024-02-15T18:32:37;3.97;;;2.65;;
49237;SDS011;35069;47.906;1.892;2024-02-15T18:35:09;6.68;;;2.13;;
49237;SDS011;35069;47.906;1.892;2024-02-15T18:37:36;4.47;;;2.85;;
49237;SDS011;35069;47.906;1.892;2024-02-15T18:42:34;5.70;;;2.15;;
49237;SDS011;35069;47.906;1.892;2024-02-15T18:45:03;4.03;;;2.53;;
49237;SDS011;35069;47.906;1.892;2024-02-15T18:47:31;5.95;;;2.90;;
49237;SDS011;35069;47.906;1.892;2024-02-15T18:49:58;4.53;;;3.38;;
49237;SDS011;35069;47.906;1.892;2024-02-15T18:52:24;4.28;;;2.65;;
49237;SDS011;35069;47.906;1.892;2024-02-15T18:54:52;4.25;;;2.72;;
49237;SDS011;35069;47.906;1.892;2024-02-15T18:57:22;3.22;;;2.20;;
49237;SDS011;35069;47.906;1.892;2024-02-15T18:59:48;3.55;;;2.95;;
49237;SDS011;35069;47.906;1.892;2024-02-15T19:02:13;4.75;;;2.55;;
49237;SDS011;35069;47.906;1.892;2024-02-15T19:04:43;4.22;;;3.13;;
49237;SDS011;35069;47.906;1.892;2024-02-15T19:07:09;4.78;;;2.40;;
49237;SDS011;35069;47.906;1.892;2024-02-15T19:09:36;2.88;;;2.30;;
49237;SDS011;35069;47.906;1.892;2024-02-15T19:12:01;5.43;;;2.90;;
49237;SDS011;35069;47.906;1.892;2024-02-15T19:14:27;8.50;;;2.78;;
49237;SDS011;35069;47.906;1.892;2024-02-15T19:16:53;2.75;;;2.33;;
49237;SDS011;35069;47.906;1.892;2024-02-15T19:19:39;2.90;;;2.28;;
49237;SDS011;35069;47.906;1.892;2024-02-15T19:22:07;3.25;;;2.33;;
49237;SDS011;35069;47.906;1.892;2024-02-15T19:24:35;3.83;;;2.63;;
49237;SDS011;35069;47.906;1.892;2024-02-15T19:27:01;2.28;;;2.03;;
49237;SDS011;35069;47.906;1.892;2024-02-15T19:29:27;5.90;;;2.83;;
49237;SDS011;35069;47.906;1.892;2024-02-15T19:31:53;4.28;;;3.20;;
49237;SDS011;35069;47.906;1.892;2024-02-15T19:34:20;3.08;;;2.53;;
49237;SDS011;35069;47.906;1.892;2024-02-15T19:36:47;8.82;;;3.60;;
49237;SDS011;35069;47.906;1.892;2024-02-15T19:39:13;6.13;;;4.18;;